Bf Esperanza — V2BR8 — position and weather

sailwx.info

Track history (hours):
 
Tides and Currents Weather Stations Pressure Air Temp Water Temp Dewpoint Dewpoint Depression Visibility Wind Speed Wind Dir Waves Ship Positions

Bf Esperanza

Last reported at 2017-Nov-19 21:01 UTC. Time now 2017-Nov-22 18:31 UTC.
Position N 58°20' E 005°09'.

Length 135 m; draft 8.5 m.

Type: Ship (hazmat cat A). MMSI: 304907000.

Date/timePositionNaut miles runAvg speedWind from/ knotsBaromVisibWave heightAir tempDewpointWater temp
2017-Nov-19 21:01N 58°20' E 005°09'113.7
2017-Nov-19 20:54N 58°22' E 005°10'513.6
2017-Nov-19 20:30N 58°27' E 005°12'713.6
2017-Nov-19 20:00N 58°34' E 005°12'714.2
2017-Nov-19 19:30N 58°41' E 005°10'714.7
2017-Nov-19 19:00N 58°48' E 005°12'714.4
2017-Nov-19 18:30N 58°55' E 005°12'714.6
2017-Nov-19 18:00N 59°03' E 005°13'713.0
2017-Nov-19 17:30N 59°08' E 005°20'714.4
2017-Nov-19 17:00N 59°15' E 005°21'510.8
2017-Nov-19 16:30N 59°21' E 005°19'5 9.4
2017-Nov-19 16:00N 59°25' E 005°15'713.4
2017-Nov-19 15:30N 59°31' E 005°12'816.3
2017-Nov-19 15:00N 59°39' E 005°19'816.9
2017-Nov-19 14:30N 59°45' E 005°30'815.0
2017-Nov-19 14:00N 59°52' E 005°32'815.3
2017-Nov-19 13:31N 59°58' E 005°23'815.8
2017-Nov-19 13:00N 60°06' E 005°18'815.4
2017-Nov-19 12:30N 60°13' E 005°11'714.7
2017-Nov-19 12:00N 60°20' E 005°11'714.4
2017-Nov-19 11:30N 60°26' E 005°02'815.9
2017-Nov-19 11:00N 60°33' E 004°56'816.0
2017-Nov-19 10:30N 60°40' E 004°50'815.6
2017-Nov-19 10:00N 60°48' E 004°44'714.1
2017-Nov-19 09:30N 60°55' E 004°46'714.2
2017-Nov-19 09:00N 61°01' E 004°52'715.0
2017-Nov-19 08:30N 61°07' E 005°02'713.3
2017-Nov-19 08:00N 61°13' E 004°57'611.5
2017-Nov-19 07:30N 61°18' E 005°02'612.3
2017-Nov-19 07:00N 61°24' E 004°59'715.0
2017-Nov-19 06:30N 61°32' E 005°00'611.9
2017-Nov-19 05:59N 61°38' E 004°59'714.6
2017-Nov-19 05:30N 61°45' E 004°56'816.0
2017-Nov-19 05:00N 61°49' E 005°10'3 6.7
2017-Nov-19 04:30N 61°53' E 005°11'5 9.8
2017-Nov-19 04:00N 61°57' E 005°09'612.5
2017-Nov-19 03:30N 62°04' E 005°08'714.0
2017-Nov-19 02:59N 62°10' E 005°02'611.8
2017-Nov-19 02:29N 62°14' E 005°12'714.6
2017-Nov-19 02:00N 62°10' E 005°24'611.3
2017-Nov-19 01:30N 62°11' E 005°36'815.9
2017-Nov-19 01:00N 62°13' E 005°52'815.2
2017-Nov-19 00:30N 62°19' E 006°03'612.2
2017-Nov-19 00:01N 62°25' E 006°03'611.6
2017-Nov-18 23:30N 62°29' E 006°11'0 0.8
2017-Nov-18 23:00N 62°29' E 006°11'0 0.0
2017-Nov-18 22:29N 62°29' E 006°11'0 0.0
2017-Nov-18 21:59N 62°29' E 006°11'0 0.0
2017-Nov-18 21:29N 62°29' E 006°11'0 0.0
2017-Nov-18 20:58N 62°29' E 006°11'0 0.0
2017-Nov-18 20:28N 62°29' E 006°11'0 0.0
2017-Nov-18 19:58N 62°29' E 006°11'0 0.0
2017-Nov-18 19:28N 62°29' E 006°11'0 0.0
2017-Nov-18 19:00N 62°29' E 006°11'0 0.0
2017-Nov-18 18:30N 62°29' E 006°11'0 0.0
2017-Nov-18 18:00N 62°29' E 006°11'0 0.0
2017-Nov-18 17:30N 62°29' E 006°11'0 0.0
2017-Nov-18 17:00N 62°29' E 006°11'0 0.0
2017-Nov-18 16:29N 62°29' E 006°11'0 0.0
2017-Nov-18 15:59N 62°29' E 006°11'0 0.0
2017-Nov-18 15:29N 62°29' E 006°11'0 0.0
2017-Nov-18 14:59N 62°29' E 006°11'0 0.0
2017-Nov-18 14:29N 62°29' E 006°11'0 0.0
2017-Nov-18 13:58N 62°29' E 006°11'0 0.0
2017-Nov-18 13:28N 62°29' E 006°11'0 0.0
2017-Nov-18 12:58N 62°29' E 006°11'0 0.0
2017-Nov-18 12:28N 62°29' E 006°11'0 0.0
2017-Nov-18 12:00N 62°29' E 006°11'0 0.0
2017-Nov-18 11:30N 62°29' E 006°11'0 0.0
2017-Nov-18 11:00N 62°29' E 006°11'0 0.0
2017-Nov-18 10:30N 62°29' E 006°11'0 0.0
2017-Nov-18 10:00N 62°29' E 006°11'0 0.0
2017-Nov-18 09:29N 62°29' E 006°11'0 0.0
2017-Nov-18 08:59N 62°29' E 006°11'0 0.0
2017-Nov-18 08:29N 62°29' E 006°11'0 0.0
2017-Nov-18 07:59N 62°29' E 006°11'0 0.0
2017-Nov-18 07:29N 62°29' E 006°11'0 0.0
2017-Nov-18 06:58N 62°29' E 006°11'0 0.0
2017-Nov-18 06:28N 62°29' E 006°11'0 0.0
2017-Nov-18 05:58N 62°29' E 006°11'0 0.0
2017-Nov-18 05:28N 62°29' E 006°11'0 0.0
2017-Nov-18 05:00N 62°29' E 006°11'0 0.0
2017-Nov-18 04:30N 62°29' E 006°11'0 0.0
2017-Nov-18 04:00N 62°29' E 006°11'0 0.0
2017-Nov-18 03:30N 62°29' E 006°11'0 0.0
2017-Nov-18 03:00N 62°29' E 006°11'0 0.0
2017-Nov-18 02:29N 62°29' E 006°11'0 0.0
2017-Nov-18 01:59N 62°29' E 006°11'0 0.0
2017-Nov-18 01:29N 62°29' E 006°11'0 0.0
2017-Nov-18 00:59N 62°29' E 006°11'0 0.0
2017-Nov-18 00:28N 62°29' E 006°11'0 0.0
2017-Nov-17 23:58N 62°29' E 006°11'0 0.0
2017-Nov-17 23:28N 62°29' E 006°11'0 0.0
2017-Nov-17 22:58N 62°29' E 006°11'0 0.0
2017-Nov-17 22:25N 62°29' E 006°11'0 0.0
2017-Nov-17 22:00N 62°29' E 006°11'0 0.0
2017-Nov-17 21:30N 62°29' E 006°11'0 0.0
2017-Nov-17 21:00N 62°29' E 006°11'0 0.0
2017-Nov-17 20:30N 62°29' E 006°11'0 0.0
2017-Nov-17 20:00N 62°29' E 006°11'0 0.0
2017-Nov-17 19:29N 62°29' E 006°11'0 0.0
2017-Nov-17 18:59N 62°29' E 006°11'0 0.0
2017-Nov-17 18:29N 62°29' E 006°11'0 0.0
2017-Nov-17 17:59N 62°29' E 006°11'0 0.0
2017-Nov-17 17:28N 62°29' E 006°11'0 0.0
2017-Nov-17 16:58N 62°29' E 006°11'0 0.0
2017-Nov-17 16:28N 62°29' E 006°11'0 0.0
2017-Nov-17 15:58N 62°29' E 006°11'0 0.0
2017-Nov-17 15:28N 62°29' E 006°11'0 0.0
2017-Nov-17 15:00N 62°29' E 006°11'0 0.0
2017-Nov-17 14:30N 62°29' E 006°11'0 0.0
2017-Nov-17 14:00N 62°29' E 006°11'0 0.0
2017-Nov-17 13:30N 62°29' E 006°11'0 0.0
2017-Nov-17 13:00N 62°29' E 006°11'0 0.0
2017-Nov-17 12:29N 62°29' E 006°11'0 0.0
2017-Nov-17 11:59N 62°29' E 006°11'0 0.0
2017-Nov-17 11:29N 62°29' E 006°11'0 0.0
2017-Nov-17 11:00N 62°29' E 006°11'0 0.4
2017-Nov-17 10:30N 62°29' E 006°12'0 0.2
2017-Nov-17 10:00N 62°29' E 006°12'4 8.4
2017-Nov-17 09:30N 62°28' E 006°03'714.1
2017-Nov-17 09:00N 62°21' E 006°08'917.0
2017-Nov-17 08:30N 62°15' E 005°56'816.4
2017-Nov-17 08:00N 62°11' E 005°40'713.9
2017-Nov-17 07:30N 62°10' E 005°25'714.4
2017-Nov-17 07:01N 62°14' E 005°12'713.5
2017-Nov-17 06:30N 62°10' E 004°59'510.4
2017-Nov-17 06:00N 62°05' E 005°00'4 7.6
2017-Nov-17 05:29N 62°04' E 005°08'612.8
2017-Nov-17 05:01N 61°57' E 005°09'5 9.7
2017-Nov-17 04:30N 61°53' E 005°11'3 6.7
2017-Nov-17 04:00N 61°49' E 005°11'815.5
2017-Nov-17 03:30N 61°45' E 004°57'714.2
2017-Nov-17 03:00N 61°38' E 004°59'510.5
2017-Nov-17 02:30N 61°33' E 005°01'714.4
2017-Nov-17 02:00N 61°26' E 004°59'713.6
2017-Nov-17 01:29N 61°19' E 005°04'611.5
2017-Nov-17 01:00N 61°16' E 004°55'712.7
2017-Nov-17 00:30N 61°10' E 005°01'713.9
2017-Nov-17 00:00N 61°04' E 004°59'714.9
2017-Nov-16 23:30N 60°59' E 004°46'713.1
2017-Nov-16 23:00N 60°53' E 004°40'613.2
2017-Nov-16 22:30N 60°47' E 004°45'715.0
2017-Nov-16 22:00N 60°40' E 004°51'815.8
2017-Nov-16 21:30N 60°33' E 004°56'815.8
2017-Nov-16 21:01N 60°26' E 005°03'612.2
2017-Nov-16 20:30N 60°21' E 005°10'611.7
2017-Nov-16 20:00N 60°15' E 005°09'815.1
2017-Nov-16 19:30N 60°08' E 005°17'815.7
2017-Nov-16 19:00N 60°01' E 005°20'816.0
2017-Nov-16 18:30N 59°55' E 005°31'816.1
2017-Nov-16 18:00N 59°47' E 005°34'816.7
2017-Nov-16 17:30N 59°41' E 005°23'816.4
2017-Nov-16 17:00N 59°34' E 005°14'714.8
2017-Nov-16 16:30N 59°27' E 005°14'611.7
2017-Nov-16 16:00N 59°21' E 005°19'714.8
2017-Nov-16 15:30N 59°14' E 005°21'612.7
2017-Nov-16 15:01N 59°08' E 005°25'713.3
2017-Nov-16 14:30N 59°03' E 005°33'715.3
2017-Nov-16 14:00N 58°55' E 005°33'612.0
2017-Nov-16 13:30N 58°50' E 005°28'815.2
2017-Nov-16 13:01N 58°44' E 005°19'815.6
2017-Nov-16 12:30N 58°36' E 005°16'915.6
2017-Nov-16 11:56N 58°27' E 005°12'31215.8
2017-Nov-15 16:13N 53°15' E 004°35'417.2
2017-Nov-15 15:59N 53°12' E 004°32'817.1
2017-Nov-15 15:30N 53°05' E 004°26'817.0
2017-Nov-15 15:00N 52°57' E 004°19'917.1
2017-Nov-15 14:30N 52°50' E 004°11'917.0
2017-Nov-15 14:00N 52°43' E 004°02'917.1
2017-Nov-15 13:30N 52°37' E 003°53'1517.3
2017-Nov-15 12:39N 52°26' E 003°36'317.5
2017-Nov-15 12:28N 52°24' E 003°33'3616.0
2017-Nov-15 10:13N 51°51' E 003°08'315.8
2017-Nov-15 10:00N 51°48' E 003°11'714.7
2017-Nov-15 09:30N 51°42' E 003°17'713.7
2017-Nov-15 09:01N 51°36' E 003°23'612.8
2017-Nov-15 08:30N 51°31' E 003°27'612.3
2017-Nov-15 08:00N 51°26' E 003°34'612.1
2017-Nov-15 07:30N 51°25' E 003°44'2 3.2
2017-Nov-15 06:59N 51°24' E 003°46'0 0.0
2017-Nov-15 06:29N 51°24' E 003°46'0 0.1
2017-Nov-15 05:50N 51°24' E 003°46'0 0.2
2017-Nov-15 05:29N 51°24' E 003°46'0 0.1
2017-Nov-15 04:56N 51°24' E 003°46'0 0.0
2017-Nov-15 04:25N 51°24' E 003°46'0 0.0
2017-Nov-15 03:55N 51°24' E 003°46'0 0.0
2017-Nov-15 03:28N 51°24' E 003°46'0 0.0
2017-Nov-15 02:49N 51°24' E 003°46'0 0.0
2017-Nov-15 02:30N 51°24' E 003°46'0 0.0
2017-Nov-15 02:00N 51°24' E 003°46'0 0.0
2017-Nov-15 01:27N 51°24' E 003°46'0 0.1
2017-Nov-15 01:00N 51°24' E 003°46'0 0.2
2017-Nov-15 00:30N 51°24' E 003°46'0 0.5
2017-Nov-15 00:00N 51°24' E 003°45'2 3.8
2017-Nov-14 23:30N 51°25' E 003°43'713.9
2017-Nov-14 23:01N 51°25' E 003°32'816.1
2017-Nov-14 22:30N 51°24' E 003°19'816.5
2017-Nov-14 22:00N 51°24' E 003°06'816.1
2017-Nov-14 21:30N 51°22' E 002°53'713.1
2017-Nov-14 21:00N 51°22' E 002°42'611.9
2017-Nov-14 20:29N 51°22' E 002°33'611.7
2017-Nov-14 20:00N 51°20' E 002°24'611.3
2017-Nov-14 19:30N 51°19' E 002°15'611.3
2017-Nov-14 19:00N 51°19' E 002°07'612.4
2017-Nov-14 18:30N 51°24' E 001°59'714.7
2017-Nov-14 18:00N 51°29' E 001°51'713.3
2017-Nov-14 17:30N 51°29' E 001°40'714.0
2017-Nov-14 17:00N 51°26' E 001°30'612.0
2017-Nov-14 16:30N 51°28' E 001°22'714.2
2017-Nov-14 16:00N 51°29' E 001°10'510.7
2017-Nov-14 15:31N 51°29' E 001°02'815.2
2017-Nov-14 15:01N 51°29' E 000°49'816.2
2017-Nov-14 14:31N 51°30' E 000°36'4 8.3
2017-Nov-14 14:00N 51°30' E 000°30'0 0.0
2017-Nov-14 13:30N 51°30' E 000°30'0 0.0
2017-Nov-14 12:56N 51°30' E 000°30'0 0.0
2017-Nov-14 12:26N 51°30' E 000°30'0 0.0
2017-Nov-14 11:58N 51°30' E 000°30'13 1.8
2017-Nov-14 05:01N 51°29' E 000°50'112.4
2017-Nov-14 04:59N 51°29' E 000°51'612.1
2017-Nov-14 04:30N 51°30' E 001°00'713.7
2017-Nov-14 04:00N 51°29' E 001°11'714.9
2017-Nov-14 03:30N 51°28' E 001°23'611.9
2017-Nov-14 03:00N 51°27' E 001°33'611.4
2017-Nov-14 02:30N 51°29' E 001°41'816.2
2017-Nov-14 02:00N 51°31' E 001°54'815.1
2017-Nov-14 01:30N 51°34' E 002°05'815.4
2017-Nov-14 01:00N 51°40' E 002°13'25711.2
2017-Nov-13 02:00N 53°36' E 008°31'0 0.0
2017-Nov-13 01:30N 53°36' E 008°31'0 0.0
2017-Nov-13 01:00N 53°36' E 008°31'0 0.0
2017-Nov-13 00:30N 53°36' E 008°31'0 0.0
2017-Nov-13 00:00N 53°36' E 008°31'0 0.0
2017-Nov-12 23:30N 53°36' E 008°31'0 0.0
2017-Nov-12 23:00N 53°36' E 008°31'0 0.0
2017-Nov-12 22:30N 53°36' E 008°31'0 0.0
2017-Nov-12 22:00N 53°36' E 008°31'0 0.0
2017-Nov-12 21:30N 53°36' E 008°31'0 0.0
2017-Nov-12 21:00N 53°36' E 008°31'0 0.0
2017-Nov-12 20:30N 53°36' E 008°31'0 0.0
2017-Nov-12 20:00N 53°36' E 008°31'0 0.0
2017-Nov-12 19:30N 53°36' E 008°31'0 0.0
2017-Nov-12 19:00N 53°36' E 008°31'0 0.2
2017-Nov-12 18:30N 53°36' E 008°31'611.5
2017-Nov-12 18:00N 53°40' E 008°23'815.9
2017-Nov-12 17:30N 53°45' E 008°13'815.6
2017-Nov-12 17:00N 53°50' E 008°03'813.2
2017-Nov-12 16:25N 53°52' E 007°50'4 9.9
2017-Nov-12 16:00N 53°53' E 007°44'7 6.6
2017-Nov-12 14:57N 53°59' E 007°38'4611.3
2017-Nov-12 10:54N 54°39' E 006°58'614.6
2017-Nov-12 10:30N 54°44' E 006°53'714.4
2017-Nov-12 10:00N 54°50' E 006°47'814.3
2017-Nov-12 09:29N 54°56' E 006°40'713.9
2017-Nov-12 09:00N 55°02' E 006°33'20414.4
2017-Nov-11 18:52N 58°20' E 005°09'614.6
2017-Nov-11 18:28N 58°26' E 005°11'714.8
2017-Nov-11 18:00N 58°33' E 005°15'714.3
2017-Nov-11 17:30N 58°40' E 005°18'714.3
2017-Nov-11 17:00N 58°47' E 005°21'714.2
2017-Nov-11 16:31N 58°52' E 005°31'713.3
2017-Nov-11 16:00N 58°58' E 005°33'816.0
2017-Nov-11 15:30N 59°06' E 005°30'714.2
2017-Nov-11 15:00N 59°12' E 005°21'815.8
2017-Nov-11 14:30N 59°19' E 005°20'612.7
2017-Nov-11 14:00N 59°25' E 005°14'714.6
2017-Nov-11 13:30N 59°32' E 005°12'815.6
2017-Nov-11 13:00N 59°39' E 005°20'815.9
2017-Nov-11 12:30N 59°45' E 005°30'714.4
2017-Nov-11 12:00N 59°52' E 005°32'714.7
2017-Nov-11 11:30N 59°58' E 005°24'815.5
2017-Nov-11 11:00N 60°05' E 005°19'815.8
2017-Nov-11 10:30N 60°12' E 005°11'714.2
2017-Nov-11 10:00N 60°19' E 005°12'611.6
2017-Nov-11 09:30N 60°25' E 005°06'815.4
2017-Nov-11 09:00N 60°31' E 004°57'816.2
2017-Nov-11 08:30N 60°39' E 004°52'815.6
2017-Nov-11 08:00N 60°46' E 004°46'714.0
2017-Nov-11 07:30N 60°53' E 004°46'714.4
2017-Nov-11 07:00N 60°60' E 004°48'815.4
2017-Nov-11 06:30N 61°05' E 005°00'714.0
2017-Nov-11 06:00N 61°12' E 005°00'714.5
2017-Nov-11 05:30N 61°17' E 004°49'713.5
2017-Nov-11 05:00N 61°24' E 004°49'712.7
2017-Nov-11 04:30N 61°29' E 004°58'612.5
2017-Nov-11 04:00N 61°35' E 004°57'611.1
2017-Nov-11 03:30N 61°40' E 004°58'612.1
2017-Nov-11 03:00N 61°46' E 005°01'714.5
2017-Nov-11 02:31N 61°50' E 005°14'4 8.2
2017-Nov-11 02:00N 61°53' E 005°10'5 9.6
2017-Nov-11 01:30N 61°58' E 005°09'611.8
2017-Nov-11 01:00N 62°04' E 005°07'4 8.5
2017-Nov-11 00:30N 62°06' E 005°00'5 8.8
2017-Nov-11 00:00N 62°11' E 005°01'4 8.2
2017-Nov-10 23:30N 62°14' E 005°06'4 7.2
2017-Nov-10 23:00N 62°14' E 005°14'612.0
2017-Nov-10 22:30N 62°10' E 005°24'510.2
2017-Nov-10 22:00N 62°11' E 005°34'612.7
2017-Nov-10 21:30N 62°12' E 005°47'612.7
2017-Nov-10 21:00N 62°16' E 005°58'612.8
2017-Nov-10 20:30N 62°21' E 006°07'612.9
2017-Nov-10 20:00N 62°27' E 006°02'510.3
2017-Nov-10 19:30N 62°29' E 006°12'0 0.5
2017-Nov-10 18:59N 62°29' E 006°11'0 0.0
2017-Nov-10 18:25N 62°29' E 006°11'0 0.0
2017-Nov-10 17:58N 62°29' E 006°11'0 0.0
2017-Nov-10 17:28N 62°29' E 006°11'0 0.0
2017-Nov-10 16:58N 62°29' E 006°11'0 0.0
2017-Nov-10 16:28N 62°29' E 006°11'0 0.0
2017-Nov-10 16:00N 62°29' E 006°11'0 0.0
2017-Nov-10 15:30N 62°29' E 006°11'0 0.0
2017-Nov-10 15:00N 62°29' E 006°11'0 0.0
2017-Nov-10 14:30N 62°29' E 006°11'0 0.0
2017-Nov-10 13:59N 62°29' E 006°11'0 0.0
2017-Nov-10 13:29N 62°29' E 006°11'0 0.0
2017-Nov-10 12:59N 62°29' E 006°11'0 0.0
2017-Nov-10 12:29N 62°29' E 006°11'0 0.0
2017-Nov-10 11:59N 62°29' E 006°11'0 0.0
2017-Nov-10 11:28N 62°29' E 006°11'0 0.0
2017-Nov-10 10:58N 62°29' E 006°11'0 0.0
2017-Nov-10 10:28N 62°29' E 006°11'0 0.0
2017-Nov-10 09:58N 62°29' E 006°11'0 0.0
2017-Nov-10 09:28N 62°29' E 006°11'0 0.0
2017-Nov-10 09:00N 62°29' E 006°11'0 0.0
2017-Nov-10 08:30N 62°29' E 006°11'0 0.0
2017-Nov-10 08:00N 62°29' E 006°11'0 0.0
2017-Nov-10 07:30N 62°29' E 006°11'0 0.0
2017-Nov-10 06:59N 62°29' E 006°11'0 0.0
2017-Nov-10 06:29N 62°29' E 006°11'0 0.0
2017-Nov-10 05:59N 62°29' E 006°11'0 0.0
2017-Nov-10 05:29N 62°29' E 006°11'0 0.0
2017-Nov-10 04:59N 62°29' E 006°11'0 0.0
2017-Nov-10 04:28N 62°29' E 006°11'0 0.0
2017-Nov-10 03:58N 62°29' E 006°11'0 0.0
2017-Nov-10 03:28N 62°29' E 006°11'0 0.0
2017-Nov-10 02:58N 62°29' E 006°11'0 0.0
2017-Nov-10 02:30N 62°29' E 006°11'0 0.0
2017-Nov-10 02:00N 62°29' E 006°11'0 0.0
2017-Nov-10 01:30N 62°29' E 006°11'0 0.1
2017-Nov-10 01:00N 62°29' E 006°12'2 3.6
2017-Nov-10 00:30N 62°29' E 006°08'5 9.2
2017-Nov-10 00:00N 62°25' E 006°03'5 9.9
2017-Nov-09 23:30N 62°20' E 006°07'612.4
2017-Nov-09 23:00N 62°16' E 005°58'611.3
2017-Nov-09 22:30N 62°12' E 005°48'612.0
2017-Nov-09 22:00N 62°11' E 005°36'5 9.5
2017-Nov-09 21:29N 62°10' E 005°25'  
Track history (hours):
 
Tides and Currents Weather Stations Pressure Air Temp Water Temp Dewpoint Dewpoint Depression Visibility Wind Speed Wind Dir Waves Ship Positions

Bf Esperanza

Last reported at 2017-Nov-19 21:01 UTC. Time now 2017-Nov-22 18:31 UTC.
Position N 58°20' E 005°09'.

Length 135 m; draft 8.5 m.

Type: Ship (hazmat cat A). MMSI: 304907000.

Date/timePositionNaut miles runAvg speedWind from/ knotsBaromVisibWave heightAir tempDewpointWater temp
2017-Nov-19 21:01N 58°20' E 005°09'113.7
2017-Nov-19 20:54N 58°22' E 005°10'513.6
2017-Nov-19 20:30N 58°27' E 005°12'713.6
2017-Nov-19 20:00N 58°34' E 005°12'714.2
2017-Nov-19 19:30N 58°41' E 005°10'714.7
2017-Nov-19 19:00N 58°48' E 005°12'714.4
2017-Nov-19 18:30N 58°55' E 005°12'714.6
2017-Nov-19 18:00N 59°03' E 005°13'713.0
2017-Nov-19 17:30N 59°08' E 005°20'714.4
2017-Nov-19 17:00N 59°15' E 005°21'510.8
2017-Nov-19 16:30N 59°21' E 005°19'5 9.4
2017-Nov-19 16:00N 59°25' E 005°15'713.4
2017-Nov-19 15:30N 59°31' E 005°12'816.3
2017-Nov-19 15:00N 59°39' E 005°19'816.9
2017-Nov-19 14:30N 59°45' E 005°30'815.0
2017-Nov-19 14:00N 59°52' E 005°32'815.3
2017-Nov-19 13:31N 59°58' E 005°23'815.8
2017-Nov-19 13:00N 60°06' E 005°18'815.4
2017-Nov-19 12:30N 60°13' E 005°11'714.7
2017-Nov-19 12:00N 60°20' E 005°11'714.4
2017-Nov-19 11:30N 60°26' E 005°02'815.9
2017-Nov-19 11:00N 60°33' E 004°56'816.0
2017-Nov-19 10:30N 60°40' E 004°50'815.6
2017-Nov-19 10:00N 60°48' E 004°44'714.1
2017-Nov-19 09:30N 60°55' E 004°46'714.2
2017-Nov-19 09:00N 61°01' E 004°52'715.0
2017-Nov-19 08:30N 61°07' E 005°02'713.3
2017-Nov-19 08:00N 61°13' E 004°57'611.5
2017-Nov-19 07:30N 61°18' E 005°02'612.3
2017-Nov-19 07:00N 61°24' E 004°59'715.0
2017-Nov-19 06:30N 61°32' E 005°00'611.9
2017-Nov-19 05:59N 61°38' E 004°59'714.6
2017-Nov-19 05:30N 61°45' E 004°56'816.0
2017-Nov-19 05:00N 61°49' E 005°10'3 6.7
2017-Nov-19 04:30N 61°53' E 005°11'5 9.8
2017-Nov-19 04:00N 61°57' E 005°09'612.5
2017-Nov-19 03:30N 62°04' E 005°08'714.0
2017-Nov-19 02:59N 62°10' E 005°02'611.8
2017-Nov-19 02:29N 62°14' E 005°12'714.6
2017-Nov-19 02:00N 62°10' E 005°24'611.3
2017-Nov-19 01:30N 62°11' E 005°36'815.9
2017-Nov-19 01:00N 62°13' E 005°52'815.2
2017-Nov-19 00:30N 62°19' E 006°03'612.2
2017-Nov-19 00:01N 62°25' E 006°03'611.6
2017-Nov-18 23:30N 62°29' E 006°11'0 0.8
2017-Nov-18 23:00N 62°29' E 006°11'0 0.0
2017-Nov-18 22:29N 62°29' E 006°11'0 0.0
2017-Nov-18 21:59N 62°29' E 006°11'0 0.0
2017-Nov-18 21:29N 62°29' E 006°11'0 0.0
2017-Nov-18 20:58N 62°29' E 006°11'0 0.0
2017-Nov-18 20:28N 62°29' E 006°11'0 0.0
2017-Nov-18 19:58N 62°29' E 006°11'0 0.0
2017-Nov-18 19:28N 62°29' E 006°11'0 0.0
2017-Nov-18 19:00N 62°29' E 006°11'0 0.0
2017-Nov-18 18:30N 62°29' E 006°11'0 0.0
2017-Nov-18 18:00N 62°29' E 006°11'0 0.0
2017-Nov-18 17:30N 62°29' E 006°11'0 0.0
2017-Nov-18 17:00N 62°29' E 006°11'0 0.0
2017-Nov-18 16:29N 62°29' E 006°11'0 0.0
2017-Nov-18 15:59N 62°29' E 006°11'0 0.0
2017-Nov-18 15:29N 62°29' E 006°11'0 0.0
2017-Nov-18 14:59N 62°29' E 006°11'0 0.0
2017-Nov-18 14:29N 62°29' E 006°11'0 0.0
2017-Nov-18 13:58N 62°29' E 006°11'0 0.0
2017-Nov-18 13:28N 62°29' E 006°11'0 0.0
2017-Nov-18 12:58N 62°29' E 006°11'0 0.0
2017-Nov-18 12:28N 62°29' E 006°11'0 0.0
2017-Nov-18 12:00N 62°29' E 006°11'0 0.0
2017-Nov-18 11:30N 62°29' E 006°11'0 0.0
2017-Nov-18 11:00N 62°29' E 006°11'0 0.0
2017-Nov-18 10:30N 62°29' E 006°11'0 0.0
2017-Nov-18 10:00N 62°29' E 006°11'0 0.0
2017-Nov-18 09:29N 62°29' E 006°11'0 0.0
2017-Nov-18 08:59N 62°29' E 006°11'0 0.0
2017-Nov-18 08:29N 62°29' E 006°11'0 0.0
2017-Nov-18 07:59N 62°29' E 006°11'0 0.0
2017-Nov-18 07:29N 62°29' E 006°11'0 0.0
2017-Nov-18 06:58N 62°29' E 006°11'0 0.0
2017-Nov-18 06:28N 62°29' E 006°11'0 0.0
2017-Nov-18 05:58N 62°29' E 006°11'0 0.0
2017-Nov-18 05:28N 62°29' E 006°11'0 0.0
2017-Nov-18 05:00N 62°29' E 006°11'0 0.0
2017-Nov-18 04:30N 62°29' E 006°11'0 0.0
2017-Nov-18 04:00N 62°29' E 006°11'0 0.0
2017-Nov-18 03:30N 62°29' E 006°11'0 0.0
2017-Nov-18 03:00N 62°29' E 006°11'0 0.0
2017-Nov-18 02:29N 62°29' E 006°11'0 0.0
2017-Nov-18 01:59N 62°29' E 006°11'0 0.0
2017-Nov-18 01:29N 62°29' E 006°11'0 0.0
2017-Nov-18 00:59N 62°29' E 006°11'0 0.0
2017-Nov-18 00:28N 62°29' E 006°11'0 0.0
2017-Nov-17 23:58N 62°29' E 006°11'0 0.0
2017-Nov-17 23:28N 62°29' E 006°11'0 0.0
2017-Nov-17 22:58N 62°29' E 006°11'0 0.0
2017-Nov-17 22:25N 62°29' E 006°11'0 0.0
2017-Nov-17 22:00N 62°29' E 006°11'0 0.0
2017-Nov-17 21:30N 62°29' E 006°11'0 0.0
2017-Nov-17 21:00N 62°29' E 006°11'0 0.0
2017-Nov-17 20:30N 62°29' E 006°11'0 0.0
2017-Nov-17 20:00N 62°29' E 006°11'0 0.0
2017-Nov-17 19:29N 62°29' E 006°11'0 0.0
2017-Nov-17 18:59N 62°29' E 006°11'0 0.0
2017-Nov-17 18:29N 62°29' E 006°11'0 0.0
2017-Nov-17 17:59N 62°29' E 006°11'0 0.0
2017-Nov-17 17:28N 62°29' E 006°11'0 0.0
2017-Nov-17 16:58N 62°29' E 006°11'0 0.0
2017-Nov-17 16:28N 62°29' E 006°11'0 0.0
2017-Nov-17 15:58N 62°29' E 006°11'0 0.0
2017-Nov-17 15:28N 62°29' E 006°11'0 0.0
2017-Nov-17 15:00N 62°29' E 006°11'0 0.0
2017-Nov-17 14:30N 62°29' E 006°11'0 0.0
2017-Nov-17 14:00N 62°29' E 006°11'0 0.0
2017-Nov-17 13:30N 62°29' E 006°11'0 0.0
2017-Nov-17 13:00N 62°29' E 006°11'0 0.0
2017-Nov-17 12:29N 62°29' E 006°11'0 0.0
2017-Nov-17 11:59N 62°29' E 006°11'0 0.0
2017-Nov-17 11:29N 62°29' E 006°11'0 0.0
2017-Nov-17 11:00N 62°29' E 006°11'0 0.4
2017-Nov-17 10:30N 62°29' E 006°12'0 0.2
2017-Nov-17 10:00N 62°29' E 006°12'4 8.4
2017-Nov-17 09:30N 62°28' E 006°03'714.1
2017-Nov-17 09:00N 62°21' E 006°08'917.0
2017-Nov-17 08:30N 62°15' E 005°56'816.4
2017-Nov-17 08:00N 62°11' E 005°40'713.9
2017-Nov-17 07:30N 62°10' E 005°25'714.4
2017-Nov-17 07:01N 62°14' E 005°12'713.5
2017-Nov-17 06:30N 62°10' E 004°59'510.4
2017-Nov-17 06:00N 62°05' E 005°00'4 7.6
2017-Nov-17 05:29N 62°04' E 005°08'612.8
2017-Nov-17 05:01N 61°57' E 005°09'5 9.7
2017-Nov-17 04:30N 61°53' E 005°11'3 6.7
2017-Nov-17 04:00N 61°49' E 005°11'815.5
2017-Nov-17 03:30N 61°45' E 004°57'714.2
2017-Nov-17 03:00N 61°38' E 004°59'510.5
2017-Nov-17 02:30N 61°33' E 005°01'714.4
2017-Nov-17 02:00N 61°26' E 004°59'713.6
2017-Nov-17 01:29N 61°19' E 005°04'611.5
2017-Nov-17 01:00N 61°16' E 004°55'712.7
2017-Nov-17 00:30N 61°10' E 005°01'713.9
2017-Nov-17 00:00N 61°04' E 004°59'714.9
2017-Nov-16 23:30N 60°59' E 004°46'713.1
2017-Nov-16 23:00N 60°53' E 004°40'613.2
2017-Nov-16 22:30N 60°47' E 004°45'715.0
2017-Nov-16 22:00N 60°40' E 004°51'815.8
2017-Nov-16 21:30N 60°33' E 004°56'815.8
2017-Nov-16 21:01N 60°26' E 005°03'612.2
2017-Nov-16 20:30N 60°21' E 005°10'611.7
2017-Nov-16 20:00N 60°15' E 005°09'815.1
2017-Nov-16 19:30N 60°08' E 005°17'815.7
2017-Nov-16 19:00N 60°01' E 005°20'816.0
2017-Nov-16 18:30N 59°55' E 005°31'816.1
2017-Nov-16 18:00N 59°47' E 005°34'816.7
2017-Nov-16 17:30N 59°41' E 005°23'816.4
2017-Nov-16 17:00N 59°34' E 005°14'714.8
2017-Nov-16 16:30N 59°27' E 005°14'611.7
2017-Nov-16 16:00N 59°21' E 005°19'714.8
2017-Nov-16 15:30N 59°14' E 005°21'612.7
2017-Nov-16 15:01N 59°08' E 005°25'713.3
2017-Nov-16 14:30N 59°03' E 005°33'715.3
2017-Nov-16 14:00N 58°55' E 005°33'612.0
2017-Nov-16 13:30N 58°50' E 005°28'815.2
2017-Nov-16 13:01N 58°44' E 005°19'815.6
2017-Nov-16 12:30N 58°36' E 005°16'915.6
2017-Nov-16 11:56N 58°27' E 005°12'31215.8
2017-Nov-15 16:13N 53°15' E 004°35'417.2
2017-Nov-15 15:59N 53°12' E 004°32'817.1
2017-Nov-15 15:30N 53°05' E 004°26'817.0
2017-Nov-15 15:00N 52°57' E 004°19'917.1
2017-Nov-15 14:30N 52°50' E 004°11'917.0
2017-Nov-15 14:00N 52°43' E 004°02'917.1
2017-Nov-15 13:30N 52°37' E 003°53'1517.3
2017-Nov-15 12:39N 52°26' E 003°36'317.5
2017-Nov-15 12:28N 52°24' E 003°33'3616.0
2017-Nov-15 10:13N 51°51' E 003°08'315.8
2017-Nov-15 10:00N 51°48' E 003°11'714.7
2017-Nov-15 09:30N 51°42' E 003°17'713.7
2017-Nov-15 09:01N 51°36' E 003°23'612.8
2017-Nov-15 08:30N 51°31' E 003°27'612.3
2017-Nov-15 08:00N 51°26' E 003°34'612.1
2017-Nov-15 07:30N 51°25' E 003°44'2 3.2
2017-Nov-15 06:59N 51°24' E 003°46'0 0.0
2017-Nov-15 06:29N 51°24' E 003°46'0 0.1
2017-Nov-15 05:50N 51°24' E 003°46'0 0.2
2017-Nov-15 05:29N 51°24' E 003°46'0 0.1
2017-Nov-15 04:56N 51°24' E 003°46'0 0.0
2017-Nov-15 04:25N 51°24' E 003°46'0 0.0
2017-Nov-15 03:55N 51°24' E 003°46'0 0.0
2017-Nov-15 03:28N 51°24' E 003°46'0 0.0
2017-Nov-15 02:49N 51°24' E 003°46'0 0.0
2017-Nov-15 02:30N 51°24' E 003°46'0 0.0
2017-Nov-15 02:00N 51°24' E 003°46'0 0.0
2017-Nov-15 01:27N 51°24' E 003°46'0 0.1
2017-Nov-15 01:00N 51°24' E 003°46'0 0.2
2017-Nov-15 00:30N 51°24' E 003°46'0 0.5
2017-Nov-15 00:00N 51°24' E 003°45'2 3.8
2017-Nov-14 23:30N 51°25' E 003°43'713.9
2017-Nov-14 23:01N 51°25' E 003°32'816.1
2017-Nov-14 22:30N 51°24' E 003°19'816.5
2017-Nov-14 22:00N 51°24' E 003°06'816.1
2017-Nov-14 21:30N 51°22' E 002°53'713.1
2017-Nov-14 21:00N 51°22' E 002°42'611.9
2017-Nov-14 20:29N 51°22' E 002°33'611.7
2017-Nov-14 20:00N 51°20' E 002°24'611.3
2017-Nov-14 19:30N 51°19' E 002°15'611.3
2017-Nov-14 19:00N 51°19' E 002°07'612.4
2017-Nov-14 18:30N 51°24' E 001°59'714.7
2017-Nov-14 18:00N 51°29' E 001°51'713.3
2017-Nov-14 17:30N 51°29' E 001°40'714.0
2017-Nov-14 17:00N 51°26' E 001°30'612.0
2017-Nov-14 16:30N 51°28' E 001°22'714.2
2017-Nov-14 16:00N 51°29' E 001°10'510.7
2017-Nov-14 15:31N 51°29' E 001°02'815.2
2017-Nov-14 15:01N 51°29' E 000°49'816.2
2017-Nov-14 14:31N 51°30' E 000°36'4 8.3
2017-Nov-14 14:00N 51°30' E 000°30'0 0.0
2017-Nov-14 13:30N 51°30' E 000°30'0 0.0
2017-Nov-14 12:56N 51°30' E 000°30'0 0.0
2017-Nov-14 12:26N 51°30' E 000°30'0 0.0
2017-Nov-14 11:58N 51°30' E 000°30'13 1.8
2017-Nov-14 05:01N 51°29' E 000°50'112.4
2017-Nov-14 04:59N 51°29' E 000°51'612.1
2017-Nov-14 04:30N 51°30' E 001°00'713.7
2017-Nov-14 04:00N 51°29' E 001°11'714.9
2017-Nov-14 03:30N 51°28' E 001°23'611.9
2017-Nov-14 03:00N 51°27' E 001°33'611.4
2017-Nov-14 02:30N 51°29' E 001°41'816.2
2017-Nov-14 02:00N 51°31' E 001°54'815.1
2017-Nov-14 01:30N 51°34' E 002°05'815.4
2017-Nov-14 01:00N 51°40' E 002°13'25711.2
2017-Nov-13 02:00N 53°36' E 008°31'0 0.0
2017-Nov-13 01:30N 53°36' E 008°31'0 0.0
2017-Nov-13 01:00N 53°36' E 008°31'0 0.0
2017-Nov-13 00:30N 53°36' E 008°31'0 0.0
2017-Nov-13 00:00N 53°36' E 008°31'0 0.0
2017-Nov-12 23:30N 53°36' E 008°31'0 0.0
2017-Nov-12 23:00N 53°36' E 008°31'0 0.0
2017-Nov-12 22:30N 53°36' E 008°31'0 0.0
2017-Nov-12 22:00N 53°36' E 008°31'0 0.0
2017-Nov-12 21:30N 53°36' E 008°31'0 0.0
2017-Nov-12 21:00N 53°36' E 008°31'0 0.0
2017-Nov-12 20:30N 53°36' E 008°31'0 0.0
2017-Nov-12 20:00N 53°36' E 008°31'0 0.0
2017-Nov-12 19:30N 53°36' E 008°31'0 0.0
2017-Nov-12 19:00N 53°36' E 008°31'0 0.2
2017-Nov-12 18:30N 53°36' E 008°31'611.5
2017-Nov-12 18:00N 53°40' E 008°23'815.9
2017-Nov-12 17:30N 53°45' E 008°13'815.6
2017-Nov-12 17:00N 53°50' E 008°03'813.2
2017-Nov-12 16:25N 53°52' E 007°50'4 9.9
2017-Nov-12 16:00N 53°53' E 007°44'7 6.6
2017-Nov-12 14:57N 53°59' E 007°38'4611.3
2017-Nov-12 10:54N 54°39' E 006°58'614.6
2017-Nov-12 10:30N 54°44' E 006°53'714.4
2017-Nov-12 10:00N 54°50' E 006°47'814.3
2017-Nov-12 09:29N 54°56' E 006°40'713.9
2017-Nov-12 09:00N 55°02' E 006°33'20414.4
2017-Nov-11 18:52N 58°20' E 005°09'614.6
2017-Nov-11 18:28N 58°26' E 005°11'714.8
2017-Nov-11 18:00N 58°33' E 005°15'714.3
2017-Nov-11 17:30N 58°40' E 005°18'714.3
2017-Nov-11 17:00N 58°47' E 005°21'714.2
2017-Nov-11 16:31N 58°52' E 005°31'713.3
2017-Nov-11 16:00N 58°58' E 005°33'816.0
2017-Nov-11 15:30N 59°06' E 005°30'714.2
2017-Nov-11 15:00N 59°12' E 005°21'815.8
2017-Nov-11 14:30N 59°19' E 005°20'612.7
2017-Nov-11 14:00N 59°25' E 005°14'714.6
2017-Nov-11 13:30N 59°32' E 005°12'815.6
2017-Nov-11 13:00N 59°39' E 005°20'815.9
2017-Nov-11 12:30N 59°45' E 005°30'714.4
2017-Nov-11 12:00N 59°52' E 005°32'714.7
2017-Nov-11 11:30N 59°58' E 005°24'815.5
2017-Nov-11 11:00N 60°05' E 005°19'815.8
2017-Nov-11 10:30N 60°12' E 005°11'714.2
2017-Nov-11 10:00N 60°19' E 005°12'611.6
2017-Nov-11 09:30N 60°25' E 005°06'815.4
2017-Nov-11 09:00N 60°31' E 004°57'816.2
2017-Nov-11 08:30N 60°39' E 004°52'815.6
2017-Nov-11 08:00N 60°46' E 004°46'714.0
2017-Nov-11 07:30N 60°53' E 004°46'714.4
2017-Nov-11 07:00N 60°60' E 004°48'815.4
2017-Nov-11 06:30N 61°05' E 005°00'714.0
2017-Nov-11 06:00N 61°12' E 005°00'714.5
2017-Nov-11 05:30N 61°17' E 004°49'713.5
2017-Nov-11 05:00N 61°24' E 004°49'712.7
2017-Nov-11 04:30N 61°29' E 004°58'612.5
2017-Nov-11 04:00N 61°35' E 004°57'611.1
2017-Nov-11 03:30N 61°40' E 004°58'612.1
2017-Nov-11 03:00N 61°46' E 005°01'714.5
2017-Nov-11 02:31N 61°50' E 005°14'4 8.2
2017-Nov-11 02:00N 61°53' E 005°10'5 9.6
2017-Nov-11 01:30N 61°58' E 005°09'611.8
2017-Nov-11 01:00N 62°04' E 005°07'4 8.5
2017-Nov-11 00:30N 62°06' E 005°00'5 8.8
2017-Nov-11 00:00N 62°11' E 005°01'4 8.2
2017-Nov-10 23:30N 62°14' E 005°06'4 7.2
2017-Nov-10 23:00N 62°14' E 005°14'612.0
2017-Nov-10 22:30N 62°10' E 005°24'510.2
2017-Nov-10 22:00N 62°11' E 005°34'612.7
2017-Nov-10 21:30N 62°12' E 005°47'612.7
2017-Nov-10 21:00N 62°16' E 005°58'612.8
2017-Nov-10 20:30N 62°21' E 006°07'612.9
2017-Nov-10 20:00N 62°27' E 006°02'510.3
2017-Nov-10 19:30N 62°29' E 006°12'0 0.5
2017-Nov-10 18:59N 62°29' E 006°11'0 0.0
2017-Nov-10 18:25N 62°29' E 006°11'0 0.0
2017-Nov-10 17:58N 62°29' E 006°11'0 0.0
2017-Nov-10 17:28N 62°29' E 006°11'0 0.0
2017-Nov-10 16:58N 62°29' E 006°11'0 0.0
2017-Nov-10 16:28N 62°29' E 006°11'0 0.0
2017-Nov-10 16:00N 62°29' E 006°11'0 0.0
2017-Nov-10 15:30N 62°29' E 006°11'0 0.0
2017-Nov-10 15:00N 62°29' E 006°11'0 0.0
2017-Nov-10 14:30N 62°29' E 006°11'0 0.0
2017-Nov-10 13:59N 62°29' E 006°11'0 0.0
2017-Nov-10 13:29N 62°29' E 006°11'0 0.0
2017-Nov-10 12:59N 62°29' E 006°11'0 0.0
2017-Nov-10 12:29N 62°29' E 006°11'0 0.0
2017-Nov-10 11:59N 62°29' E 006°11'0 0.0
2017-Nov-10 11:28N 62°29' E 006°11'0 0.0
2017-Nov-10 10:58N 62°29' E 006°11'0 0.0
2017-Nov-10 10:28N 62°29' E 006°11'0 0.0
2017-Nov-10 09:58N 62°29' E 006°11'0 0.0
2017-Nov-10 09:28N 62°29' E 006°11'0 0.0
2017-Nov-10 09:00N 62°29' E 006°11'0 0.0
2017-Nov-10 08:30N 62°29' E 006°11'0 0.0
2017-Nov-10 08:00N 62°29' E 006°11'0 0.0
2017-Nov-10 07:30N 62°29' E 006°11'0 0.0
2017-Nov-10 06:59N 62°29' E 006°11'0 0.0
2017-Nov-10 06:29N 62°29' E 006°11'0 0.0
2017-Nov-10 05:59N 62°29' E 006°11'0 0.0
2017-Nov-10 05:29N 62°29' E 006°11'0 0.0
2017-Nov-10 04:59N 62°29' E 006°11'0 0.0
2017-Nov-10 04:28N 62°29' E 006°11'0 0.0
2017-Nov-10 03:58N 62°29' E 006°11'0 0.0
2017-Nov-10 03:28N 62°29' E 006°11'0 0.0
2017-Nov-10 02:58N 62°29' E 006°11'0 0.0
2017-Nov-10 02:30N 62°29' E 006°11'0 0.0
2017-Nov-10 02:00N 62°29' E 006°11'0 0.0
2017-Nov-10 01:30N 62°29' E 006°11'0 0.1
2017-Nov-10 01:00N 62°29' E 006°12'2 3.6
2017-Nov-10 00:30N 62°29' E 006°08'5 9.2
2017-Nov-10 00:00N 62°25' E 006°03'5 9.9
2017-Nov-09 23:30N 62°20' E 006°07'612.4
2017-Nov-09 23:00N 62°16' E 005°58'611.3
2017-Nov-09 22:30N 62°12' E 005°48'612.0
2017-Nov-09 22:00N 62°11' E 005°36'5 9.5
2017-Nov-09 21:29N 62°10' E 005°25'  

Dump ship's entire track history